createdAt,value
2018-06-15T00:00:52.272Z,13.50
2018-06-15T00:03:19.668Z,13.40
2018-06-15T00:05:47.070Z,13.30
2018-06-15T00:10:42.009Z,13.30
2018-06-15T00:13:09.338Z,13.20
2018-06-15T00:15:36.790Z,13.10
2018-06-15T00:18:04.480Z,13.20
2018-06-15T00:20:31.834Z,13.20
2018-06-15T00:22:59.222Z,13.30
2018-06-15T00:25:26.530Z,13.30
2018-06-15T00:27:53.941Z,13.40
2018-06-15T00:30:21.503Z,13.30
2018-06-15T00:32:48.842Z,13.20
2018-06-15T00:35:16.264Z,13.00
2018-06-15T00:37:43.670Z,13.00
2018-06-15T00:40:11.112Z,13.00
2018-06-15T00:42:38.428Z,13.00
2018-06-15T00:45:05.826Z,13.00
2018-06-15T00:47:33.146Z,13.00
2018-06-15T00:50:00.454Z,13.00
2018-06-15T00:52:27.795Z,13.10
2018-06-15T00:54:55.185Z,13.10
2018-06-15T00:57:34.102Z,13.10
2018-06-15T01:00:01.480Z,13.00
2018-06-15T01:02:28.929Z,13.10
2018-06-15T01:04:56.305Z,13.00
2018-06-15T01:07:23.630Z,12.90
2018-06-15T01:09:50.989Z,12.90
2018-06-15T01:12:18.373Z,12.90
2018-06-15T01:14:45.799Z,13.00
2018-06-15T01:17:13.178Z,13.10
2018-06-15T01:19:40.579Z,13.00
2018-06-15T01:22:07.850Z,12.80
2018-06-15T01:24:35.298Z,12.70
2018-06-15T01:27:02.781Z,12.70
2018-06-15T01:29:30.158Z,12.70
2018-06-15T01:31:57.517Z,12.70
2018-06-15T01:34:24.866Z,12.60
2018-06-15T01:36:52.205Z,12.60
2018-06-15T01:39:19.493Z,12.50
2018-06-15T01:41:46.929Z,12.60
2018-06-15T01:44:14.370Z,12.50
2018-06-15T01:46:41.738Z,12.40
2018-06-15T01:49:09.125Z,12.40
2018-06-15T01:51:36.513Z,12.30
2018-06-15T01:54:03.878Z,12.30
2018-06-15T01:56:31.361Z,12.20
2018-06-15T01:58:58.715Z,12.30
2018-06-15T02:01:26.201Z,12.20
2018-06-15T02:03:53.510Z,12.10
2018-06-15T02:06:20.807Z,12.10
2018-06-15T02:08:48.274Z,12.10
2018-06-15T02:11:15.710Z,12.00
2018-06-15T02:13:43.118Z,12.00
2018-06-15T02:16:10.494Z,12.00
2018-06-15T02:18:37.925Z,12.00
2018-06-15T02:21:05.302Z,11.90
2018-06-15T02:23:32.781Z,11.90
2018-06-15T02:26:00.116Z,11.90
2018-06-15T02:28:27.490Z,11.90
2018-06-15T02:30:54.910Z,11.90
2018-06-15T02:33:22.302Z,11.90
2018-06-15T02:35:49.744Z,11.90
2018-06-15T02:38:17.212Z,11.80
2018-06-15T02:40:44.617Z,11.80
2018-06-15T02:43:11.951Z,11.80
2018-06-15T02:45:39.374Z,11.90
2018-06-15T02:48:06.702Z,11.90
2018-06-15T02:50:33.992Z,11.90
2018-06-15T02:53:01.379Z,11.90
2018-06-15T02:55:28.880Z,12.00
2018-06-15T02:57:56.277Z,12.10
2018-06-15T03:00:23.651Z,12.00
2018-06-15T03:02:51.069Z,11.90
2018-06-15T03:05:18.515Z,11.90
2018-06-15T03:07:45.905Z,11.90
2018-06-15T03:10:13.291Z,11.80
2018-06-15T03:12:40.721Z,12.00
2018-06-15T03:15:08.210Z,12.10
2018-06-15T03:17:35.737Z,12.00
2018-06-15T03:20:03.135Z,12.00
2018-06-15T03:22:30.608Z,11.90
2018-06-15T03:24:57.984Z,12.10
2018-06-15T03:27:25.318Z,12.10
2018-06-15T03:29:52.733Z,12.20
2018-06-15T03:32:20.049Z,12.20
2018-06-15T03:34:47.515Z,12.10
2018-06-15T03:37:14.847Z,12.10
2018-06-15T03:39:42.258Z,12.20
2018-06-15T03:42:09.712Z,12.30
2018-06-15T03:44:37.046Z,12.30
2018-06-15T03:47:04.478Z,12.20
2018-06-15T03:49:31.852Z,12.20
2018-06-15T03:51:59.215Z,12.20
2018-06-15T03:54:26.538Z,12.30
2018-06-15T03:56:53.939Z,12.40
2018-06-15T03:59:21.222Z,12.50
2018-06-15T04:01:48.630Z,12.50
2018-06-15T04:04:15.977Z,12.50
2018-06-15T04:06:43.354Z,12.50
2018-06-15T04:09:10.696Z,12.60
2018-06-15T04:11:38.391Z,12.60
2018-06-15T04:14:05.814Z,12.50
2018-06-15T04:16:33.578Z,12.50
2018-06-15T04:19:00.953Z,12.50
2018-06-15T04:21:28.342Z,12.50
2018-06-15T04:23:55.802Z,12.50
2018-06-15T04:26:23.090Z,12.50
2018-06-15T04:28:50.426Z,12.30
2018-06-15T04:31:17.810Z,12.40
2018-06-15T04:33:45.190Z,12.50
2018-06-15T04:36:12.576Z,12.40
2018-06-15T04:38:39.926Z,12.40
2018-06-15T04:41:07.434Z,12.50
2018-06-15T04:43:34.739Z,12.60
2018-06-15T04:46:02.159Z,12.70
2018-06-15T04:48:29.668Z,12.80
2018-06-15T04:50:57.053Z,12.80
2018-06-15T04:53:24.438Z,12.80
2018-06-15T04:55:51.782Z,12.90
2018-06-15T04:58:19.288Z,12.90
2018-06-15T05:00:47.076Z,13.00
2018-06-15T05:03:14.623Z,13.00
2018-06-15T05:05:42.599Z,12.90
2018-06-15T05:08:10.332Z,13.10
2018-06-15T05:10:37.722Z,13.20
2018-06-15T05:13:05.206Z,13.30
2018-06-15T05:15:32.478Z,13.40
2018-06-15T05:18:00.036Z,13.40
2018-06-15T05:20:27.454Z,13.50
2018-06-15T05:22:54.834Z,13.60
2018-06-15T05:25:22.270Z,13.70
2018-06-15T05:27:49.726Z,13.80
2018-06-15T05:30:17.131Z,14.00
2018-06-15T05:32:44.474Z,14.10
2018-06-15T05:35:12.063Z,14.20
2018-06-15T05:37:39.482Z,14.30
2018-06-15T05:40:07.014Z,14.50
2018-06-15T05:42:34.807Z,14.50
2018-06-15T05:45:02.175Z,14.60
2018-06-15T05:47:29.521Z,14.70
2018-06-15T05:49:56.852Z,14.70
2018-06-15T05:52:24.261Z,14.80
2018-06-15T05:57:19.046Z,15.00
2018-06-15T05:59:46.420Z,15.10
2018-06-15T06:02:13.819Z,15.20
2018-06-15T06:04:41.302Z,15.30
2018-06-15T06:07:08.713Z,15.30
2018-06-15T06:09:36.093Z,15.40
2018-06-15T06:12:03.546Z,15.50
2018-06-15T06:14:30.997Z,15.50
2018-06-15T06:16:58.459Z,15.60
2018-06-15T06:19:25.803Z,15.70
2018-06-15T06:21:53.191Z,15.80
2018-06-15T06:24:20.582Z,16.00
2018-06-15T06:26:48.008Z,15.90
2018-06-15T06:29:15.356Z,15.90
2018-06-15T06:31:42.765Z,16.00
2018-06-15T06:34:10.211Z,16.10
2018-06-15T06:36:37.651Z,16.00
2018-06-15T06:39:07.797Z,16.00
2018-06-15T06:41:35.234Z,16.10
2018-06-15T06:44:02.702Z,16.40
2018-06-15T06:46:30.107Z,16.70
2018-06-15T06:48:57.490Z,16.80
2018-06-15T06:51:24.950Z,16.90
2018-06-15T06:53:52.341Z,16.90
2018-06-15T06:56:19.734Z,16.90
2018-06-15T06:58:47.078Z,16.90
2018-06-15T07:01:14.525Z,17.10
2018-06-15T07:03:41.946Z,17.10
2018-06-15T07:06:09.342Z,17.10
2018-06-15T07:08:36.809Z,17.20
2018-06-15T07:11:04.260Z,17.30
2018-06-15T07:13:31.675Z,17.40
2018-06-15T07:15:59.008Z,17.50
2018-06-15T07:18:26.362Z,17.60
2018-06-15T07:20:53.693Z,17.70
2018-06-15T07:23:21.077Z,17.70
2018-06-15T07:25:48.979Z,17.80
2018-06-15T07:28:16.375Z,18.00
2018-06-15T07:30:43.807Z,18.20
2018-06-15T07:33:11.213Z,18.20
2018-06-15T07:35:38.559Z,18.50
2018-06-15T07:38:07.180Z,18.90
2018-06-15T07:40:34.537Z,19.20
2018-06-15T07:43:01.890Z,19.00
2018-06-15T07:45:29.312Z,19.30
2018-06-15T07:47:56.674Z,19.30
2018-06-15T07:50:24.198Z,19.40
2018-06-15T07:52:51.662Z,19.50
2018-06-15T07:55:20.055Z,19.40
2018-06-15T07:57:47.522Z,19.30
2018-06-15T08:00:15.010Z,19.40
2018-06-15T08:02:42.330Z,19.60
2018-06-15T08:05:09.720Z,20.00
2018-06-15T08:07:37.162Z,20.10
2018-06-15T08:12:31.990Z,20.40
2018-06-15T08:14:59.486Z,20.40
2018-06-15T08:17:26.930Z,20.80
2018-06-15T08:19:54.399Z,21.00
2018-06-15T08:22:21.821Z,21.00
2018-06-15T08:24:49.241Z,21.00
2018-06-15T08:27:16.590Z,21.10
2018-06-15T08:29:44.027Z,21.00
2018-06-15T08:32:11.422Z,21.10
2018-06-15T08:34:38.880Z,21.00
2018-06-15T08:37:06.205Z,20.60
2018-06-15T08:39:33.643Z,20.60
2018-06-15T08:42:00.921Z,20.60
2018-06-15T08:44:28.215Z,20.10
2018-06-15T08:46:55.674Z,20.20
2018-06-15T08:49:22.946Z,20.10
2018-06-15T08:51:50.997Z,20.20
2018-06-15T08:54:18.276Z,20.10
2018-06-15T08:56:45.725Z,20.60
2018-06-15T08:59:13.079Z,20.60
2018-06-15T09:01:40.431Z,21.10
2018-06-15T09:04:07.822Z,21.40
2018-06-15T09:06:35.211Z,21.70
2018-06-15T09:09:03.174Z,21.90
2018-06-15T09:11:30.623Z,22.30
2018-06-15T09:13:58.022Z,22.30
2018-06-15T09:16:26.353Z,21.80
2018-06-15T09:18:53.821Z,22.00
2018-06-15T09:21:21.270Z,22.30
2018-06-15T09:23:48.825Z,22.60
2018-06-15T09:26:16.959Z,22.60
2018-06-15T09:28:47.233Z,22.80
2018-06-15T09:31:14.691Z,22.80
2018-06-15T09:33:42.719Z,22.50
2018-06-15T09:36:10.163Z,22.20
2018-06-15T09:38:37.511Z,21.70
2018-06-15T09:41:04.890Z,21.40
2018-06-15T09:43:32.331Z,21.20
2018-06-15T09:46:00.217Z,21.30
2018-06-15T09:48:27.614Z,21.30
2018-06-15T09:50:54.957Z,21.40
2018-06-15T09:53:22.679Z,21.60
2018-06-15T09:55:50.314Z,21.50
2018-06-15T09:58:18.433Z,21.70
2018-06-15T10:00:51.534Z,21.60
2018-06-15T10:03:18.951Z,21.80
2018-06-15T10:05:46.331Z,22.10
2018-06-15T10:08:13.650Z,22.40
2018-06-15T10:10:41.931Z,22.50
2018-06-15T10:13:09.320Z,22.80
2018-06-15T10:15:37.117Z,22.70
2018-06-15T10:18:04.593Z,22.90
2018-06-15T10:20:32.085Z,22.90
2018-06-15T10:22:59.501Z,22.50
2018-06-15T10:27:54.224Z,22.90
2018-06-15T10:30:21.633Z,23.00
2018-06-15T10:32:50.721Z,23.30
2018-06-15T10:35:18.141Z,23.50
2018-06-15T10:37:45.539Z,23.60
2018-06-15T10:40:12.828Z,23.60
2018-06-15T10:42:40.478Z,23.80
2018-06-15T10:45:07.913Z,24.00
2018-06-15T10:47:35.361Z,24.20
2018-06-15T10:50:02.735Z,24.20
2018-06-15T10:52:30.119Z,24.50
2018-06-15T10:54:57.555Z,24.10
2018-06-15T10:57:25.047Z,24.10
2018-06-15T10:59:52.529Z,24.00
2018-06-15T11:02:19.950Z,23.90
2018-06-15T11:04:47.369Z,24.20
2018-06-15T11:07:14.821Z,24.40
2018-06-15T11:09:42.156Z,24.30
2018-06-15T11:12:10.460Z,24.30
2018-06-15T11:14:37.755Z,24.20
2018-06-15T11:17:05.941Z,24.30
2018-06-15T11:19:33.275Z,24.20
2018-06-15T11:22:01.470Z,24.00
2018-06-15T11:24:29.418Z,23.80
2018-06-15T11:26:56.934Z,23.40
2018-06-15T11:29:24.366Z,22.90
2018-06-15T11:31:51.812Z,22.90
2018-06-15T11:34:19.178Z,22.80
2018-06-15T11:36:46.648Z,23.10
2018-06-15T11:39:14.030Z,23.20
2018-06-15T11:41:41.466Z,23.60
2018-06-15T11:44:08.927Z,23.80
2018-06-15T11:46:36.304Z,23.90
2018-06-15T11:49:03.788Z,23.90
2018-06-15T11:51:31.233Z,23.80
2018-06-15T11:53:58.593Z,23.90
2018-06-15T11:56:25.934Z,24.00
2018-06-15T11:58:53.216Z,24.30
2018-06-15T12:01:20.711Z,24.30
2018-06-15T12:03:48.088Z,24.40
2018-06-15T12:06:15.532Z,24.40
2018-06-15T12:08:43.056Z,24.10
2018-06-15T12:11:10.482Z,24.20
2018-06-15T12:13:38.545Z,24.60
2018-06-15T12:16:05.962Z,24.40
2018-06-15T12:18:33.342Z,24.60
2018-06-15T12:21:00.782Z,24.50
2018-06-15T12:23:28.934Z,24.20
2018-06-15T12:25:56.415Z,23.90
2018-06-15T12:28:23.860Z,23.70
2018-06-15T12:30:51.180Z,23.90
2018-06-15T12:33:18.590Z,24.20
2018-06-15T12:35:46.041Z,24.20
2018-06-15T12:38:13.417Z,24.30
2018-06-15T12:40:40.865Z,24.30
2018-06-15T12:43:08.274Z,24.40
2018-06-15T12:45:35.558Z,24.80
2018-06-15T12:48:03.010Z,25.00
2018-06-15T12:50:30.332Z,25.00
2018-06-15T12:52:57.741Z,25.30
2018-06-15T12:55:25.126Z,25.30
2018-06-15T13:00:19.909Z,25.00
2018-06-15T13:02:47.281Z,24.60
2018-06-15T13:07:42.061Z,25.10
2018-06-15T13:10:09.512Z,25.60
2018-06-15T13:12:36.855Z,25.00
2018-06-15T13:15:04.334Z,24.70
2018-06-15T13:17:32.041Z,24.00
2018-06-15T13:19:59.503Z,23.80
2018-06-15T13:22:26.826Z,23.50
2018-06-15T13:24:54.207Z,23.50
2018-06-15T13:27:21.610Z,23.70
2018-06-15T13:29:48.993Z,23.30
2018-06-15T13:32:16.493Z,23.50
2018-06-15T13:34:43.851Z,23.90
2018-06-15T13:37:11.312Z,24.30
2018-06-15T13:39:38.799Z,24.60
2018-06-15T13:42:06.135Z,24.70
2018-06-15T13:44:33.609Z,24.90
2018-06-15T13:47:00.943Z,25.20
2018-06-15T13:49:28.265Z,25.40
2018-06-15T13:51:55.728Z,25.60
2018-06-15T13:54:23.141Z,25.90
2018-06-15T13:56:50.582Z,26.00
2018-06-15T13:59:17.993Z,26.10
2018-06-15T14:01:45.320Z,25.90
2018-06-15T14:04:12.803Z,25.20
2018-06-15T14:06:40.253Z,25.30
2018-06-15T14:09:08.637Z,25.70
2018-06-15T14:11:36.060Z,25.50
2018-06-15T14:14:03.502Z,25.20
2018-06-15T14:16:30.935Z,24.80
2018-06-15T14:18:58.264Z,24.60
2018-06-15T14:21:25.666Z,24.60
2018-06-15T14:23:53.082Z,24.80
2018-06-15T14:26:20.522Z,25.20
2018-06-15T14:31:15.231Z,25.80
2018-06-15T14:33:42.723Z,26.10
2018-06-15T14:36:10.182Z,25.70
2018-06-15T14:38:37.558Z,25.70
2018-06-15T14:41:05.074Z,25.70
2018-06-15T14:43:32.410Z,26.10
2018-06-15T14:45:59.830Z,25.90
2018-06-15T14:48:27.290Z,25.50
2018-06-15T14:50:54.844Z,25.30
2018-06-15T14:53:22.262Z,25.10
2018-06-15T14:55:49.768Z,25.00
2018-06-15T14:58:17.224Z,25.20
2018-06-15T15:00:44.704Z,25.30
2018-06-15T15:03:12.174Z,25.50
2018-06-15T15:05:39.582Z,25.20
2018-06-15T15:08:06.972Z,25.50
2018-06-15T15:10:34.328Z,25.40
2018-06-15T15:13:01.697Z,25.40
2018-06-15T15:15:29.102Z,25.20
2018-06-15T15:17:56.602Z,24.90
2018-06-15T15:22:51.372Z,24.60
2018-06-15T15:25:18.776Z,24.80
2018-06-15T15:27:46.179Z,25.00
2018-06-15T15:30:13.588Z,24.80
2018-06-15T15:32:40.968Z,24.90
2018-06-15T15:35:08.390Z,25.00
2018-06-15T15:37:35.788Z,24.90
2018-06-15T15:40:03.262Z,24.80
2018-06-15T15:42:30.600Z,24.80
2018-06-15T15:44:58.008Z,24.40
2018-06-15T15:47:25.390Z,24.40
2018-06-15T15:49:52.821Z,24.50
2018-06-15T15:52:20.158Z,24.40
2018-06-15T15:54:47.578Z,24.50
2018-06-15T15:57:15.110Z,24.20
2018-06-15T15:59:42.495Z,23.90
2018-06-15T16:02:09.942Z,24.00
2018-06-15T16:04:37.368Z,23.90
2018-06-15T16:07:04.853Z,23.80
2018-06-15T16:09:32.223Z,23.70
2018-06-15T16:11:59.648Z,23.50
2018-06-15T16:14:27.148Z,23.50
2018-06-15T16:16:54.606Z,23.50
2018-06-15T16:19:22.154Z,23.50
2018-06-15T16:21:49.523Z,23.30
2018-06-15T16:24:17.020Z,23.20
2018-06-15T16:26:44.506Z,23.10
2018-06-15T16:29:11.938Z,23.00
2018-06-15T16:31:39.509Z,22.90
2018-06-15T16:34:07.083Z,22.90
2018-06-15T16:36:34.648Z,22.80
2018-06-15T16:39:02.161Z,22.80
2018-06-15T16:41:29.529Z,22.80
2018-06-15T16:43:58.860Z,22.90
2018-06-15T16:46:26.389Z,23.00
2018-06-15T16:48:54.594Z,23.20
2018-06-15T16:51:22.064Z,23.20
2018-06-15T16:53:49.513Z,23.20
2018-06-15T16:56:16.948Z,23.30
2018-06-15T16:58:44.355Z,23.30
2018-06-15T17:01:12.072Z,23.30
2018-06-15T17:03:39.514Z,23.40
2018-06-15T17:06:06.854Z,23.30
2018-06-15T17:08:34.833Z,23.30
2018-06-15T17:11:04.449Z,23.40
2018-06-15T17:13:31.909Z,23.30
2018-06-15T17:15:59.252Z,23.30
2018-06-15T17:18:26.739Z,23.40
2018-06-15T17:20:54.245Z,23.40
2018-06-15T17:23:22.346Z,23.30
2018-06-15T17:28:17.144Z,23.20
2018-06-15T17:30:44.594Z,23.10
2018-06-15T17:33:11.947Z,23.10
2018-06-15T17:35:39.433Z,23.10
2018-06-15T17:38:06.951Z,23.00
2018-06-15T17:40:34.310Z,23.10
2018-06-15T17:43:01.850Z,23.00
2018-06-15T17:45:29.378Z,23.00
2018-06-15T17:47:56.869Z,22.90
2018-06-15T17:50:24.481Z,23.00
2018-06-15T17:52:51.799Z,22.90
2018-06-15T17:55:19.327Z,22.90
2018-06-15T17:57:46.745Z,22.70
2018-06-15T18:00:14.327Z,22.70
2018-06-15T18:02:41.814Z,22.70
2018-06-15T18:05:09.187Z,22.60
2018-06-15T18:07:36.588Z,22.70
2018-06-15T18:10:04.118Z,22.60
2018-06-15T18:12:31.551Z,22.60
2018-06-15T18:14:59.052Z,22.60
2018-06-15T18:17:26.574Z,22.60
2018-06-15T18:19:54.093Z,22.60
2018-06-15T18:22:21.585Z,22.40
2018-06-15T18:24:49.082Z,22.40
2018-06-15T18:27:16.585Z,22.30
2018-06-15T18:29:44.056Z,22.10
2018-06-15T18:32:11.575Z,22.10
2018-06-15T18:34:38.894Z,22.10
2018-06-15T18:37:06.414Z,22.00
2018-06-15T18:39:33.809Z,21.90
2018-06-15T18:42:01.204Z,21.80
2018-06-15T18:44:28.572Z,21.70
2018-06-15T18:46:56.229Z,21.60
2018-06-15T18:49:23.724Z,21.60
2018-06-15T18:51:51.091Z,21.50
2018-06-15T18:54:18.593Z,21.40
2018-06-15T18:56:45.963Z,21.30
2018-06-15T18:59:13.504Z,21.20
2018-06-15T19:01:40.882Z,21.10
2018-06-15T19:04:08.291Z,21.10
2018-06-15T19:06:35.658Z,21.00
2018-06-15T19:09:04.976Z,20.90
2018-06-15T19:11:32.418Z,20.90
2018-06-15T19:16:27.239Z,20.90
2018-06-15T19:18:54.689Z,20.80
2018-06-15T19:21:22.197Z,20.70
2018-06-15T19:23:49.786Z,20.60
2018-06-15T19:26:17.219Z,20.50
2018-06-15T19:28:44.737Z,20.40
2018-06-15T19:31:12.202Z,20.40
2018-06-15T19:33:40.907Z,20.30
2018-06-15T19:36:08.380Z,20.30
2018-06-15T19:38:35.873Z,20.20
2018-06-15T19:45:57.945Z,19.90
2018-06-15T19:48:25.433Z,19.90
2018-06-15T19:50:52.905Z,19.80
2018-06-15T19:53:20.502Z,19.80
2018-06-15T19:55:47.931Z,19.70
2018-06-15T19:58:15.285Z,19.70
2018-06-15T20:00:42.755Z,19.70
2018-06-15T20:03:10.247Z,19.60
2018-06-15T20:05:38.176Z,19.60
2018-06-15T20:08:05.724Z,19.50
2018-06-15T20:10:33.230Z,19.50
2018-06-15T20:13:00.654Z,19.50
2018-06-15T20:15:28.117Z,19.50
2018-06-15T20:17:55.554Z,19.40
2018-06-15T20:20:22.992Z,19.40
2018-06-15T20:22:50.395Z,19.20
2018-06-15T20:25:17.836Z,19.30
2018-06-15T20:27:45.275Z,19.20
2018-06-15T20:30:12.828Z,19.20
2018-06-15T20:32:40.166Z,19.20
2018-06-15T20:40:02.334Z,19.10
2018-06-15T20:42:29.761Z,19.00
2018-06-15T20:44:57.146Z,18.90
2018-06-15T20:47:24.562Z,18.90
2018-06-15T20:49:52.006Z,18.90
2018-06-15T20:52:19.446Z,18.80
2018-06-15T20:54:46.842Z,18.80
2018-06-15T20:57:14.322Z,18.80
2018-06-15T20:59:41.892Z,18.90
2018-06-15T21:02:09.370Z,18.80
2018-06-15T21:04:36.814Z,18.70
2018-06-15T21:07:04.334Z,18.60
2018-06-15T21:09:31.781Z,18.50
2018-06-15T21:11:59.158Z,18.50
2018-06-15T21:14:26.551Z,18.40
2018-06-15T21:16:53.970Z,18.30
2018-06-15T21:19:21.409Z,18.30
2018-06-15T21:24:16.090Z,18.10
2018-06-15T21:26:43.621Z,18.10
2018-06-15T21:29:10.987Z,18.00
2018-06-15T21:31:38.392Z,18.00
2018-06-15T21:34:05.825Z,17.90
2018-06-15T21:36:33.337Z,17.90
2018-06-15T21:39:00.732Z,17.80
2018-06-15T21:41:28.053Z,17.80
2018-06-15T21:43:55.449Z,17.80
2018-06-15T21:46:22.736Z,17.90
2018-06-15T21:48:50.068Z,17.80
2018-06-15T21:51:17.375Z,17.80
2018-06-15T21:53:44.785Z,17.70
2018-06-15T21:56:12.159Z,17.70
2018-06-15T21:58:39.591Z,17.70
2018-06-15T22:01:07.006Z,17.70
2018-06-15T22:03:34.545Z,17.80
2018-06-15T22:06:01.903Z,17.70
2018-06-15T22:08:29.243Z,17.60
2018-06-15T22:10:56.663Z,17.60
2018-06-15T22:13:24.090Z,17.60
2018-06-15T22:15:51.559Z,17.40
2018-06-15T22:18:18.902Z,17.40
2018-06-15T22:20:46.651Z,17.30
2018-06-15T22:23:14.151Z,17.20
2018-06-15T22:25:41.632Z,17.10
2018-06-15T22:28:09.093Z,17.10
2018-06-15T22:30:36.449Z,17.00
2018-06-15T22:33:03.877Z,16.90
2018-06-15T22:35:31.248Z,16.90
2018-06-15T22:37:58.590Z,16.80
2018-06-15T22:40:26.051Z,16.70
2018-06-15T22:42:53.453Z,16.80
2018-06-15T22:45:20.821Z,16.70
2018-06-15T22:47:48.183Z,16.60
2018-06-15T22:50:15.615Z,16.50
2018-06-15T22:52:43.055Z,16.50
2018-06-15T22:55:10.434Z,16.40
2018-06-15T22:57:37.824Z,16.40
2018-06-15T23:00:05.589Z,16.40
2018-06-15T23:02:33.075Z,16.30
2018-06-15T23:05:00.540Z,16.30
2018-06-15T23:07:27.930Z,16.30
2018-06-15T23:09:55.537Z,16.30
2018-06-15T23:12:22.990Z,16.30
2018-06-15T23:14:50.346Z,16.20
2018-06-15T23:17:17.760Z,16.20
2018-06-15T23:19:45.174Z,16.10
2018-06-15T23:22:12.458Z,16.20
2018-06-15T23:24:39.798Z,16.10
2018-06-15T23:27:07.190Z,15.90
2018-06-15T23:29:34.580Z,15.90
2018-06-15T23:32:02.012Z,15.80
2018-06-15T23:34:29.430Z,15.70
2018-06-15T23:36:56.782Z,15.70
2018-06-15T23:39:24.114Z,15.70
2018-06-15T23:41:51.442Z,15.60
2018-06-15T23:44:18.803Z,15.60
2018-06-15T23:46:46.206Z,15.60
2018-06-15T23:49:13.586Z,15.60
2018-06-15T23:51:40.994Z,15.70
2018-06-15T23:54:08.308Z,15.70
2018-06-15T23:56:35.614Z,15.70
2018-06-15T23:59:03.118Z,15.70
